Pagrindinis puslapis
METAR-TAF:

METAR-TAF

Oro uostai :

Parnaíba, Piauí, Brazilija

platuma: 02-55S, ilguma: 041-45W, Aukštis: 5 m

Dabartinis oras

Ataskaita buvo paskelbta 1 valandą ir 15 minutes, ne 13:00 UTC
Temperatūra
Slėgis
Matomumas 10 km arba daugiau
Išsisklaidę debesys ne aukštis 1700 ft

METAR: SBPB 011300Z /////KT 9999 SCT017 ///// Q////

Laikas: 11:15 (14:15 UTC)

Prognozė

Ataskaita buvo paskelbta 5 valandos ir 15 minutes, ne 09:00 UTC
Prognozė galioja nuo 01 metu 12 UTC su 01 metu 24 UTC
Vėjas 6 kt iš Pietryčių
Matomumas 10 km arba daugiau
Išsisklaidę debesys ne aukštis 1700 ft
Tapsmas
nuo 01 metu 14 UTC su 01 metu 16 UTC
Vėjas 5 kt iš Rytų/Šiaurės Rytų
Išsisklaidę debesys ne aukštis 1700 ft
Mažai debesys ne aukštis 2500 ft, aukštai iškilę kamuoliniai debesys.

TAF: SBPB 010900Z 0112/0124 14006KT 9999 SCT017 TX31/0117Z TN26/0123Z BECMG 0114/0116 07005KT SCT017 FEW025TCU RMK PEP

Orai ataskaitas ir orų prognozės (METAR, TAF).

turimą stotys yra geltonos ir raudonos taškus žemėlapyje.

Perkelti pele per norėdami pamatyti stoties vardą.

Tada spustelėkite, norėdami matyti oro stebėjimo ir prognozės.

Norėdami pakeisti žemėlapį: spustelėkite ant žalios mygtukų su juodo kryžiaus žemyn,; žalią mygtuką su brūkšneliu, jei norite nutolinti; arba žalių rodyklių gretimoms žemėlapius.


METAR-TAF: